sensor_id;sensor_type;location;lat;lon;timestamp;P1;durP1;ratioP1;P2;durP2;ratioP2
26052;SDS011;13826;51.186;4.450;2022-07-04T00:01:24;8.57;;;1.70;;
26052;SDS011;13826;51.186;4.450;2022-07-04T00:03:50;6.32;;;1.60;;
26052;SDS011;13826;51.186;4.450;2022-07-04T00:06:15;5.80;;;1.67;;
26052;SDS011;13826;51.186;4.450;2022-07-04T00:08:41;5.18;;;1.55;;
26052;SDS011;13826;51.186;4.450;2022-07-04T00:11:07;6.47;;;1.50;;
26052;SDS011;13826;51.186;4.450;2022-07-04T00:13:32;11.85;;;2.63;;
26052;SDS011;13826;51.186;4.450;2022-07-04T00:15:58;6.57;;;1.60;;
26052;SDS011;13826;51.186;4.450;2022-07-04T00:18:24;6.70;;;1.67;;
26052;SDS011;13826;51.186;4.450;2022-07-04T00:20:50;7.35;;;2.65;;
26052;SDS011;13826;51.186;4.450;2022-07-04T00:23:15;7.43;;;2.20;;
26052;SDS011;13826;51.186;4.450;2022-07-04T00:25:41;8.75;;;1.90;;
26052;SDS011;13826;51.186;4.450;2022-07-04T00:28:07;6.60;;;1.98;;
26052;SDS011;13826;51.186;4.450;2022-07-04T00:30:33;7.22;;;2.03;;
26052;SDS011;13826;51.186;4.450;2022-07-04T00:32:58;6.35;;;1.80;;
26052;SDS011;13826;51.186;4.450;2022-07-04T00:35:24;8.35;;;2.03;;
26052;SDS011;13826;51.186;4.450;2022-07-04T00:37:50;8.23;;;2.50;;
26052;SDS011;13826;51.186;4.450;2022-07-04T00:40:15;6.55;;;2.10;;
26052;SDS011;13826;51.186;4.450;2022-07-04T00:42:41;7.32;;;2.33;;
26052;SDS011;13826;51.186;4.450;2022-07-04T00:45:07;9.68;;;2.65;;
26052;SDS011;13826;51.186;4.450;2022-07-04T00:47:33;9.35;;;2.47;;
26052;SDS011;13826;51.186;4.450;2022-07-04T00:49:59;8.40;;;1.80;;
26052;SDS011;13826;51.186;4.450;2022-07-04T00:52:24;10.07;;;3.05;;
26052;SDS011;13826;51.186;4.450;2022-07-04T00:54:50;7.68;;;2.20;;
26052;SDS011;13826;51.186;4.450;2022-07-04T00:57:16;11.80;;;2.63;;
26052;SDS011;13826;51.186;4.450;2022-07-04T00:59:41;8.35;;;2.00;;
26052;SDS011;13826;51.186;4.450;2022-07-04T01:02:07;10.13;;;2.78;;
26052;SDS011;13826;51.186;4.450;2022-07-04T01:04:33;6.75;;;2.15;;
26052;SDS011;13826;51.186;4.450;2022-07-04T01:06:59;11.13;;;2.00;;
26052;SDS011;13826;51.186;4.450;2022-07-04T01:09:25;11.40;;;2.10;;
26052;SDS011;13826;51.186;4.450;2022-07-04T01:11:51;6.90;;;2.50;;
26052;SDS011;13826;51.186;4.450;2022-07-04T01:14:17;7.40;;;2.67;;
26052;SDS011;13826;51.186;4.450;2022-07-04T01:16:43;4.05;;;1.75;;
26052;SDS011;13826;51.186;4.450;2022-07-04T01:19:09;13.48;;;2.63;;
26052;SDS011;13826;51.186;4.450;2022-07-04T01:21:34;7.15;;;1.80;;
26052;SDS011;13826;51.186;4.450;2022-07-04T01:24:00;7.13;;;2.38;;
26052;SDS011;13826;51.186;4.450;2022-07-04T01:26:29;10.18;;;2.20;;
26052;SDS011;13826;51.186;4.450;2022-07-04T01:28:55;9.52;;;2.58;;
26052;SDS011;13826;51.186;4.450;2022-07-04T01:31:21;8.65;;;2.00;;
26052;SDS011;13826;51.186;4.450;2022-07-04T01:33:46;10.80;;;2.40;;
26052;SDS011;13826;51.186;4.450;2022-07-04T01:36:12;9.80;;;2.17;;
26052;SDS011;13826;51.186;4.450;2022-07-04T01:38:38;9.70;;;3.30;;
26052;SDS011;13826;51.186;4.450;2022-07-04T01:41:03;11.95;;;4.88;;
26052;SDS011;13826;51.186;4.450;2022-07-04T01:43:29;15.43;;;5.80;;
26052;SDS011;13826;51.186;4.450;2022-07-04T01:45:55;14.98;;;6.43;;
26052;SDS011;13826;51.186;4.450;2022-07-04T01:48:20;14.35;;;5.60;;
26052;SDS011;13826;51.186;4.450;2022-07-04T01:50:46;13.93;;;4.93;;
26052;SDS011;13826;51.186;4.450;2022-07-04T01:53:12;9.45;;;4.57;;
26052;SDS011;13826;51.186;4.450;2022-07-04T01:55:37;13.20;;;4.85;;
26052;SDS011;13826;51.186;4.450;2022-07-04T01:58:03;11.07;;;5.90;;
26052;SDS011;13826;51.186;4.450;2022-07-04T02:00:29;12.93;;;5.93;;
26052;SDS011;13826;51.186;4.450;2022-07-04T02:03:14;16.10;;;6.57;;
26052;SDS011;13826;51.186;4.450;2022-07-04T02:05:39;17.10;;;6.70;;
26052;SDS011;13826;51.186;4.450;2022-07-04T02:08:07;12.60;;;7.30;;
26052;SDS011;13826;51.186;4.450;2022-07-04T02:10:36;13.52;;;7.28;;
26052;SDS011;13826;51.186;4.450;2022-07-04T02:13:02;14.07;;;7.65;;
26052;SDS011;13826;51.186;4.450;2022-07-04T02:15:29;17.27;;;7.68;;
26052;SDS011;13826;51.186;4.450;2022-07-04T02:17:58;15.20;;;6.57;;
26052;SDS011;13826;51.186;4.450;2022-07-04T02:20:25;15.38;;;6.65;;
26052;SDS011;13826;51.186;4.450;2022-07-04T02:22:51;12.63;;;6.68;;
26052;SDS011;13826;51.186;4.450;2022-07-04T02:25:17;18.20;;;7.13;;
26052;SDS011;13826;51.186;4.450;2022-07-04T02:27:43;15.88;;;5.70;;
26052;SDS011;13826;51.186;4.450;2022-07-04T02:30:09;11.45;;;5.38;;
26052;SDS011;13826;51.186;4.450;2022-07-04T02:32:36;8.98;;;5.30;;
26052;SDS011;13826;51.186;4.450;2022-07-04T02:35:02;11.02;;;5.20;;
26052;SDS011;13826;51.186;4.450;2022-07-04T02:37:28;13.60;;;6.28;;
26052;SDS011;13826;51.186;4.450;2022-07-04T02:39:54;13.88;;;5.18;;
26052;SDS011;13826;51.186;4.450;2022-07-04T02:42:20;10.70;;;4.95;;
26052;SDS011;13826;51.186;4.450;2022-07-04T02:44:46;17.50;;;5.32;;
26052;SDS011;13826;51.186;4.450;2022-07-04T02:47:12;14.77;;;5.65;;
26052;SDS011;13826;51.186;4.450;2022-07-04T02:49:38;11.65;;;5.18;;
26052;SDS011;13826;51.186;4.450;2022-07-04T02:52:04;13.23;;;5.28;;
26052;SDS011;13826;51.186;4.450;2022-07-04T02:54:30;11.30;;;5.18;;
26052;SDS011;13826;51.186;4.450;2022-07-04T02:56:55;10.80;;;4.55;;
26052;SDS011;13826;51.186;4.450;2022-07-04T02:59:21;15.40;;;4.95;;
26052;SDS011;13826;51.186;4.450;2022-07-04T03:01:47;8.77;;;4.45;;
26052;SDS011;13826;51.186;4.450;2022-07-04T03:04:12;12.23;;;4.65;;
26052;SDS011;13826;51.186;4.450;2022-07-04T03:06:38;10.25;;;4.40;;
26052;SDS011;13826;51.186;4.450;2022-07-04T03:09:05;14.23;;;4.75;;
26052;SDS011;13826;51.186;4.450;2022-07-04T03:11:31;10.25;;;4.25;;
26052;SDS011;13826;51.186;4.450;2022-07-04T03:13:57;13.88;;;4.18;;
26052;SDS011;13826;51.186;4.450;2022-07-04T03:16:23;14.68;;;4.70;;
26052;SDS011;13826;51.186;4.450;2022-07-04T03:18:48;7.53;;;4.00;;
26052;SDS011;13826;51.186;4.450;2022-07-04T03:21:14;9.77;;;3.65;;
26052;SDS011;13826;51.186;4.450;2022-07-04T03:23:40;10.18;;;3.97;;
26052;SDS011;13826;51.186;4.450;2022-07-04T03:26:06;8.48;;;3.90;;
26052;SDS011;13826;51.186;4.450;2022-07-04T03:28:31;8.15;;;3.35;;
26052;SDS011;13826;51.186;4.450;2022-07-04T03:30:57;14.80;;;4.32;;
26052;SDS011;13826;51.186;4.450;2022-07-04T03:33:23;6.70;;;3.33;;
26052;SDS011;13826;51.186;4.450;2022-07-04T03:35:49;8.18;;;4.00;;
26052;SDS011;13826;51.186;4.450;2022-07-04T03:38:15;6.95;;;3.50;;
26052;SDS011;13826;51.186;4.450;2022-07-04T03:40:41;9.65;;;3.28;;
26052;SDS011;13826;51.186;4.450;2022-07-04T03:43:06;7.13;;;3.80;;
26052;SDS011;13826;51.186;4.450;2022-07-04T03:45:32;7.00;;;3.30;;
26052;SDS011;13826;51.186;4.450;2022-07-04T03:47:58;11.27;;;3.72;;
26052;SDS011;13826;51.186;4.450;2022-07-04T03:50:27;8.30;;;3.67;;
26052;SDS011;13826;51.186;4.450;2022-07-04T03:52:52;8.90;;;3.67;;
26052;SDS011;13826;51.186;4.450;2022-07-04T03:55:18;8.10;;;3.65;;
26052;SDS011;13826;51.186;4.450;2022-07-04T03:57:44;11.60;;;3.85;;
26052;SDS011;13826;51.186;4.450;2022-07-04T04:00:09;8.70;;;3.45;;
26052;SDS011;13826;51.186;4.450;2022-07-04T04:02:36;7.72;;;3.60;;
26052;SDS011;13826;51.186;4.450;2022-07-04T04:05:03;9.77;;;3.88;;
26052;SDS011;13826;51.186;4.450;2022-07-04T04:07:47;9.48;;;3.72;;
26052;SDS011;13826;51.186;4.450;2022-07-04T04:10:13;11.93;;;3.83;;
26052;SDS011;13826;51.186;4.450;2022-07-04T04:12:39;7.15;;;3.25;;
26052;SDS011;13826;51.186;4.450;2022-07-04T04:15:04;10.68;;;3.38;;
26052;SDS011;13826;51.186;4.450;2022-07-04T04:17:30;9.85;;;3.58;;
26052;SDS011;13826;51.186;4.450;2022-07-04T04:19:56;10.07;;;3.30;;
26052;SDS011;13826;51.186;4.450;2022-07-04T04:22:21;7.50;;;3.47;;
26052;SDS011;13826;51.186;4.450;2022-07-04T04:24:47;5.65;;;3.13;;
26052;SDS011;13826;51.186;4.450;2022-07-04T04:27:13;6.90;;;2.95;;
26052;SDS011;13826;51.186;4.450;2022-07-04T04:29:39;7.82;;;3.20;;
26052;SDS011;13826;51.186;4.450;2022-07-04T04:32:04;11.70;;;3.53;;
26052;SDS011;13826;51.186;4.450;2022-07-04T04:34:30;8.00;;;3.45;;
26052;SDS011;13826;51.186;4.450;2022-07-04T04:36:56;12.70;;;3.55;;
26052;SDS011;13826;51.186;4.450;2022-07-04T04:39:22;11.10;;;3.10;;
26052;SDS011;13826;51.186;4.450;2022-07-04T04:41:47;13.70;;;4.15;;
26052;SDS011;13826;51.186;4.450;2022-07-04T04:44:13;8.38;;;2.83;;
26052;SDS011;13826;51.186;4.450;2022-07-04T04:46:39;8.82;;;3.05;;
26052;SDS011;13826;51.186;4.450;2022-07-04T04:49:05;8.10;;;3.40;;
26052;SDS011;13826;51.186;4.450;2022-07-04T04:51:31;9.30;;;3.00;;
26052;SDS011;13826;51.186;4.450;2022-07-04T04:53:56;13.23;;;3.17;;
26052;SDS011;13826;51.186;4.450;2022-07-04T04:56:22;12.23;;;3.28;;
26052;SDS011;13826;51.186;4.450;2022-07-04T04:58:48;10.88;;;3.00;;
26052;SDS011;13826;51.186;4.450;2022-07-04T05:01:14;10.45;;;3.45;;
26052;SDS011;13826;51.186;4.450;2022-07-04T05:03:39;9.55;;;2.92;;
26052;SDS011;13826;51.186;4.450;2022-07-04T05:06:05;11.40;;;2.97;;
26052;SDS011;13826;51.186;4.450;2022-07-04T05:08:31;14.23;;;2.90;;
26052;SDS011;13826;51.186;4.450;2022-07-04T05:10:56;8.82;;;2.50;;
26052;SDS011;13826;51.186;4.450;2022-07-04T05:13:22;7.03;;;2.45;;
26052;SDS011;13826;51.186;4.450;2022-07-04T05:15:48;8.48;;;2.67;;
26052;SDS011;13826;51.186;4.450;2022-07-04T05:18:13;14.60;;;3.00;;
26052;SDS011;13826;51.186;4.450;2022-07-04T05:20:40;8.63;;;2.47;;
26052;SDS011;13826;51.186;4.450;2022-07-04T05:23:06;16.40;;;3.33;;
26052;SDS011;13826;51.186;4.450;2022-07-04T05:25:31;8.82;;;2.40;;
26052;SDS011;13826;51.186;4.450;2022-07-04T05:27:57;11.43;;;2.63;;
26052;SDS011;13826;51.186;4.450;2022-07-04T05:30:23;12.60;;;2.63;;
26052;SDS011;13826;51.186;4.450;2022-07-04T05:32:49;11.40;;;2.63;;
26052;SDS011;13826;51.186;4.450;2022-07-04T05:35:15;9.77;;;2.28;;
26052;SDS011;13826;51.186;4.450;2022-07-04T05:37:41;10.05;;;2.45;;
26052;SDS011;13826;51.186;4.450;2022-07-04T05:40:08;13.60;;;3.15;;
26052;SDS011;13826;51.186;4.450;2022-07-04T05:42:35;10.75;;;2.50;;
26052;SDS011;13826;51.186;4.450;2022-07-04T05:45:00;8.85;;;2.17;;
26052;SDS011;13826;51.186;4.450;2022-07-04T05:47:26;8.32;;;2.47;;
26052;SDS011;13826;51.186;4.450;2022-07-04T05:49:52;11.82;;;2.55;;
26052;SDS011;13826;51.186;4.450;2022-07-04T05:52:18;9.98;;;3.15;;
26052;SDS011;13826;51.186;4.450;2022-07-04T05:54:43;7.38;;;2.78;;
26052;SDS011;13826;51.186;4.450;2022-07-04T05:57:09;8.10;;;2.50;;
26052;SDS011;13826;51.186;4.450;2022-07-04T05:59:35;16.25;;;3.42;;
26052;SDS011;13826;51.186;4.450;2022-07-04T06:02:01;9.30;;;2.58;;
26052;SDS011;13826;51.186;4.450;2022-07-04T06:04:27;8.93;;;2.90;;
26052;SDS011;13826;51.186;4.450;2022-07-04T06:06:53;11.52;;;2.45;;
26052;SDS011;13826;51.186;4.450;2022-07-04T06:09:19;9.13;;;2.75;;
26052;SDS011;13826;51.186;4.450;2022-07-04T06:11:44;10.88;;;3.08;;
26052;SDS011;13826;51.186;4.450;2022-07-04T06:14:10;14.27;;;3.10;;
26052;SDS011;13826;51.186;4.450;2022-07-04T06:16:36;8.88;;;3.10;;
26052;SDS011;13826;51.186;4.450;2022-07-04T06:19:02;15.90;;;3.28;;
26052;SDS011;13826;51.186;4.450;2022-07-04T06:21:27;7.25;;;2.88;;
26052;SDS011;13826;51.186;4.450;2022-07-04T06:23:53;7.90;;;2.47;;
26052;SDS011;13826;51.186;4.450;2022-07-04T06:26:19;9.80;;;2.70;;
26052;SDS011;13826;51.186;4.450;2022-07-04T06:28:45;10.38;;;3.17;;
26052;SDS011;13826;51.186;4.450;2022-07-04T06:31:11;8.07;;;2.60;;
26052;SDS011;13826;51.186;4.450;2022-07-04T06:33:37;12.90;;;3.72;;
26052;SDS011;13826;51.186;4.450;2022-07-04T06:36:23;11.40;;;3.75;;
26052;SDS011;13826;51.186;4.450;2022-07-04T06:38:49;16.45;;;4.28;;
26052;SDS011;13826;51.186;4.450;2022-07-04T06:41:15;13.95;;;3.97;;
26052;SDS011;13826;51.186;4.450;2022-07-04T06:43:40;11.05;;;3.80;;
26052;SDS011;13826;51.186;4.450;2022-07-04T06:46:06;14.25;;;3.97;;
26052;SDS011;13826;51.186;4.450;2022-07-04T06:48:32;13.40;;;3.20;;
26052;SDS011;13826;51.186;4.450;2022-07-04T06:50:58;10.55;;;3.20;;
26052;SDS011;13826;51.186;4.450;2022-07-04T06:53:24;9.20;;;3.20;;
26052;SDS011;13826;51.186;4.450;2022-07-04T06:55:49;8.82;;;2.88;;
26052;SDS011;13826;51.186;4.450;2022-07-04T06:58:15;8.30;;;3.47;;
26052;SDS011;13826;51.186;4.450;2022-07-04T07:00:41;10.25;;;3.15;;
26052;SDS011;13826;51.186;4.450;2022-07-04T07:03:07;9.15;;;3.40;;
26052;SDS011;13826;51.186;4.450;2022-07-04T07:05:33;9.45;;;3.22;;
26052;SDS011;13826;51.186;4.450;2022-07-04T07:08:02;9.07;;;2.97;;
26052;SDS011;13826;51.186;4.450;2022-07-04T07:10:29;13.25;;;3.33;;
26052;SDS011;13826;51.186;4.450;2022-07-04T07:12:57;19.65;;;4.60;;
26052;SDS011;13826;51.186;4.450;2022-07-04T07:15:24;15.55;;;3.45;;
26052;SDS011;13826;51.186;4.450;2022-07-04T07:17:50;11.38;;;4.18;;
26052;SDS011;13826;51.186;4.450;2022-07-04T07:20:15;8.30;;;3.45;;
26052;SDS011;13826;51.186;4.450;2022-07-04T07:22:42;12.02;;;3.67;;
26052;SDS011;13826;51.186;4.450;2022-07-04T07:25:09;12.75;;;4.18;;
26052;SDS011;13826;51.186;4.450;2022-07-04T07:27:35;11.07;;;3.88;;
26052;SDS011;13826;51.186;4.450;2022-07-04T07:30:02;9.60;;;3.45;;
26052;SDS011;13826;51.186;4.450;2022-07-04T07:32:28;9.65;;;3.17;;
26052;SDS011;13826;51.186;4.450;2022-07-04T07:34:53;9.80;;;3.60;;
26052;SDS011;13826;51.186;4.450;2022-07-04T07:37:19;8.18;;;2.88;;
26052;SDS011;13826;51.186;4.450;2022-07-04T07:39:47;8.45;;;3.00;;
26052;SDS011;13826;51.186;4.450;2022-07-04T07:42:13;9.27;;;4.35;;
26052;SDS011;13826;51.186;4.450;2022-07-04T07:44:39;9.55;;;3.25;;
26052;SDS011;13826;51.186;4.450;2022-07-04T07:47:05;7.32;;;2.65;;
26052;SDS011;13826;51.186;4.450;2022-07-04T07:49:31;11.30;;;2.88;;
26052;SDS011;13826;51.186;4.450;2022-07-04T07:51:56;7.78;;;3.33;;
26052;SDS011;13826;51.186;4.450;2022-07-04T07:54:22;10.85;;;2.75;;
26052;SDS011;13826;51.186;4.450;2022-07-04T07:56:48;8.02;;;2.90;;
26052;SDS011;13826;51.186;4.450;2022-07-04T07:59:14;8.57;;;2.75;;
26052;SDS011;13826;51.186;4.450;2022-07-04T08:01:39;10.65;;;3.15;;
26052;SDS011;13826;51.186;4.450;2022-07-04T08:04:05;9.88;;;2.92;;
26052;SDS011;13826;51.186;4.450;2022-07-04T08:06:49;9.80;;;3.30;;
26052;SDS011;13826;51.186;4.450;2022-07-04T08:09:15;8.43;;;3.25;;
26052;SDS011;13826;51.186;4.450;2022-07-04T08:11:41;9.15;;;2.65;;
26052;SDS011;13826;51.186;4.450;2022-07-04T08:14:07;14.32;;;3.55;;
26052;SDS011;13826;51.186;4.450;2022-07-04T08:16:33;7.82;;;2.70;;
26052;SDS011;13826;51.186;4.450;2022-07-04T08:18:59;9.45;;;2.38;;
26052;SDS011;13826;51.186;4.450;2022-07-04T08:21:25;7.43;;;2.30;;
26052;SDS011;13826;51.186;4.450;2022-07-04T08:23:52;10.32;;;2.40;;
26052;SDS011;13826;51.186;4.450;2022-07-04T08:26:18;8.98;;;3.00;;
26052;SDS011;13826;51.186;4.450;2022-07-04T08:28:44;8.77;;;2.45;;
26052;SDS011;13826;51.186;4.450;2022-07-04T08:31:09;8.38;;;2.22;;
26052;SDS011;13826;51.186;4.450;2022-07-04T08:33:35;8.27;;;2.60;;
26052;SDS011;13826;51.186;4.450;2022-07-04T08:36:01;8.82;;;2.25;;
26052;SDS011;13826;51.186;4.450;2022-07-04T08:38:28;6.63;;;2.65;;
26052;SDS011;13826;51.186;4.450;2022-07-04T08:40:55;9.23;;;2.53;;
26052;SDS011;13826;51.186;4.450;2022-07-04T08:43:22;7.55;;;2.40;;
26052;SDS011;13826;51.186;4.450;2022-07-04T08:45:52;11.20;;;3.17;;
26052;SDS011;13826;51.186;4.450;2022-07-04T08:48:19;8.88;;;1.90;;
26052;SDS011;13826;51.186;4.450;2022-07-04T08:50:51;4.53;;;1.50;;
26052;SDS011;13826;51.186;4.450;2022-07-04T08:53:21;7.70;;;2.00;;
26052;SDS011;13826;51.186;4.450;2022-07-04T08:55:49;8.68;;;1.80;;
26052;SDS011;13826;51.186;4.450;2022-07-04T08:58:36;3.67;;;1.60;;
26052;SDS011;13826;51.186;4.450;2022-07-04T09:01:04;9.93;;;2.08;;
26052;SDS011;13826;51.186;4.450;2022-07-04T09:03:32;7.60;;;2.28;;
26052;SDS011;13826;51.186;4.450;2022-07-04T09:05:59;6.78;;;1.95;;
26052;SDS011;13826;51.186;4.450;2022-07-04T09:08:25;10.38;;;2.63;;
26052;SDS011;13826;51.186;4.450;2022-07-04T09:10:52;8.52;;;2.28;;
26052;SDS011;13826;51.186;4.450;2022-07-04T09:13:18;7.53;;;1.55;;
26052;SDS011;13826;51.186;4.450;2022-07-04T09:15:46;7.32;;;1.77;;
26052;SDS011;13826;51.186;4.450;2022-07-04T09:18:20;6.45;;;1.90;;
26052;SDS011;13826;51.186;4.450;2022-07-04T09:20:58;7.57;;;2.05;;
26052;SDS011;13826;51.186;4.450;2022-07-04T09:23:29;8.20;;;2.65;;
26052;SDS011;13826;51.186;4.450;2022-07-04T09:28:58;7.55;;;2.03;;
26052;SDS011;13826;51.186;4.450;2022-07-04T09:31:25;9.43;;;2.20;;
26052;SDS011;13826;51.186;4.450;2022-07-04T09:36:32;5.82;;;1.85;;
26052;SDS011;13826;51.186;4.450;2022-07-04T09:39:06;7.03;;;1.80;;
26052;SDS011;13826;51.186;4.450;2022-07-04T09:41:50;8.13;;;1.75;;
26052;SDS011;13826;51.186;4.450;2022-07-04T09:44:19;7.25;;;1.98;;
26052;SDS011;13826;51.186;4.450;2022-07-04T09:46:45;6.22;;;2.15;;
26052;SDS011;13826;51.186;4.450;2022-07-04T09:49:11;5.72;;;1.60;;
26052;SDS011;13826;51.186;4.450;2022-07-04T09:54:18;5.05;;;1.70;;
26052;SDS011;13826;51.186;4.450;2022-07-04T09:56:48;6.10;;;1.77;;
26052;SDS011;13826;51.186;4.450;2022-07-04T09:59:16;6.80;;;1.70;;
26052;SDS011;13826;51.186;4.450;2022-07-04T10:01:43;5.78;;;2.00;;
26052;SDS011;13826;51.186;4.450;2022-07-04T10:04:08;7.07;;;2.00;;
26052;SDS011;13826;51.186;4.450;2022-07-04T10:06:36;8.25;;;1.92;;
26052;SDS011;13826;51.186;4.450;2022-07-04T10:09:11;5.10;;;1.80;;
26052;SDS011;13826;51.186;4.450;2022-07-04T10:11:39;6.35;;;2.17;;
26052;SDS011;13826;51.186;4.450;2022-07-04T10:14:06;7.20;;;2.22;;
26052;SDS011;13826;51.186;4.450;2022-07-04T10:16:34;6.20;;;2.28;;
26052;SDS011;13826;51.186;4.450;2022-07-04T10:19:01;11.98;;;2.95;;
26052;SDS011;13826;51.186;4.450;2022-07-04T10:21:28;10.77;;;2.90;;
26052;SDS011;13826;51.186;4.450;2022-07-04T10:23:55;8.55;;;2.88;;
26052;SDS011;13826;51.186;4.450;2022-07-04T10:26:21;7.38;;;2.55;;
26052;SDS011;13826;51.186;4.450;2022-07-04T10:28:49;8.65;;;2.20;;
26052;SDS011;13826;51.186;4.450;2022-07-04T10:31:17;10.48;;;3.25;;
26052;SDS011;13826;51.186;4.450;2022-07-04T10:33:44;6.10;;;2.50;;
26052;SDS011;13826;51.186;4.450;2022-07-04T10:36:17;9.50;;;2.60;;
26052;SDS011;13826;51.186;4.450;2022-07-04T10:38:51;8.10;;;2.25;;
26052;SDS011;13826;51.186;4.450;2022-07-04T10:41:18;7.72;;;2.38;;
26052;SDS011;13826;51.186;4.450;2022-07-04T10:46:33;6.30;;;2.13;;
26052;SDS011;13826;51.186;4.450;2022-07-04T10:51:33;7.60;;;2.20;;
26052;SDS011;13826;51.186;4.450;2022-07-04T10:54:05;13.73;;;3.42;;
26052;SDS011;13826;51.186;4.450;2022-07-04T10:56:37;7.53;;;2.40;;
26052;SDS011;13826;51.186;4.450;2022-07-04T10:59:17;5.70;;;1.88;;
26052;SDS011;13826;51.186;4.450;2022-07-04T11:01:45;6.07;;;1.80;;
26052;SDS011;13826;51.186;4.450;2022-07-04T11:04:12;4.85;;;1.40;;
26052;SDS011;13826;51.186;4.450;2022-07-04T11:16:58;9.25;;;2.28;;
26052;SDS011;13826;51.186;4.450;2022-07-04T11:19:24;5.88;;;1.85;;
26052;SDS011;13826;51.186;4.450;2022-07-04T11:21:50;8.60;;;2.60;;
26052;SDS011;13826;51.186;4.450;2022-07-04T11:24:15;6.13;;;2.75;;
26052;SDS011;13826;51.186;4.450;2022-07-04T11:26:42;9.63;;;2.85;;
26052;SDS011;13826;51.186;4.450;2022-07-04T11:29:08;7.32;;;2.22;;
26052;SDS011;13826;51.186;4.450;2022-07-04T11:31:39;7.40;;;2.35;;
26052;SDS011;13826;51.186;4.450;2022-07-04T11:34:07;4.00;;;1.83;;
26052;SDS011;13826;51.186;4.450;2022-07-04T11:36:33;7.75;;;1.90;;
26052;SDS011;13826;51.186;4.450;2022-07-04T11:39:00;6.85;;;2.40;;
26052;SDS011;13826;51.186;4.450;2022-07-04T11:41:35;3.95;;;1.60;;
26052;SDS011;13826;51.186;4.450;2022-07-04T11:44:20;5.50;;;1.60;;
26052;SDS011;13826;51.186;4.450;2022-07-04T11:47:14;5.63;;;1.70;;
26052;SDS011;13826;51.186;4.450;2022-07-04T11:50:03;4.95;;;1.52;;
26052;SDS011;13826;51.186;4.450;2022-07-04T11:52:38;4.68;;;1.80;;
26052;SDS011;13826;51.186;4.450;2022-07-04T11:55:07;4.82;;;1.30;;
26052;SDS011;13826;51.186;4.450;2022-07-04T11:57:39;5.55;;;1.33;;
26052;SDS011;13826;51.186;4.450;2022-07-04T12:02:45;4.63;;;1.67;;
26052;SDS011;13826;51.186;4.450;2022-07-04T12:05:13;5.90;;;1.90;;
26052;SDS011;13826;51.186;4.450;2022-07-04T12:07:41;4.53;;;1.80;;
26052;SDS011;13826;51.186;4.450;2022-07-04T12:15:24;5.25;;;2.15;;
26052;SDS011;13826;51.186;4.450;2022-07-04T12:18:00;5.22;;;1.83;;
26052;SDS011;13826;51.186;4.450;2022-07-04T12:20:26;5.15;;;1.67;;
26052;SDS011;13826;51.186;4.450;2022-07-04T12:25:26;3.60;;;1.70;;
26052;SDS011;13826;51.186;4.450;2022-07-04T12:28:02;4.50;;;1.73;;
26052;SDS011;13826;51.186;4.450;2022-07-04T12:30:32;5.13;;;1.45;;
26052;SDS011;13826;51.186;4.450;2022-07-04T12:33:07;5.30;;;1.92;;
26052;SDS011;13826;51.186;4.450;2022-07-04T12:35:44;6.70;;;2.13;;
26052;SDS011;13826;51.186;4.450;2022-07-04T12:40:58;8.48;;;1.70;;
26052;SDS011;13826;51.186;4.450;2022-07-04T12:43:47;6.35;;;2.08;;
26052;SDS011;13826;51.186;4.450;2022-07-04T12:48:49;6.28;;;2.00;;
26052;SDS011;13826;51.186;4.450;2022-07-04T12:51:20;5.13;;;2.08;;
26052;SDS011;13826;51.186;4.450;2022-07-04T12:53:51;5.35;;;2.58;;
26052;SDS011;13826;51.186;4.450;2022-07-04T12:58:54;10.38;;;2.90;;
26052;SDS011;13826;51.186;4.450;2022-07-04T13:01:20;8.02;;;2.97;;
26052;SDS011;13826;51.186;4.450;2022-07-04T13:03:46;7.68;;;2.80;;
26052;SDS011;13826;51.186;4.450;2022-07-04T13:06:12;6.97;;;2.40;;
26052;SDS011;13826;51.186;4.450;2022-07-04T13:08:38;7.03;;;2.50;;
26052;SDS011;13826;51.186;4.450;2022-07-04T13:11:04;10.30;;;2.60;;
26052;SDS011;13826;51.186;4.450;2022-07-04T13:13:48;8.15;;;2.75;;
26052;SDS011;13826;51.186;4.450;2022-07-04T13:16:13;8.35;;;2.28;;
26052;SDS011;13826;51.186;4.450;2022-07-04T13:18:40;8.70;;;2.58;;
26052;SDS011;13826;51.186;4.450;2022-07-04T13:21:05;9.48;;;2.95;;
26052;SDS011;13826;51.186;4.450;2022-07-04T13:23:31;10.45;;;2.75;;
26052;SDS011;13826;51.186;4.450;2022-07-04T13:25:57;7.05;;;3.03;;
26052;SDS011;13826;51.186;4.450;2022-07-04T13:28:23;7.00;;;2.92;;
26052;SDS011;13826;51.186;4.450;2022-07-04T13:30:48;5.20;;;2.38;;
26052;SDS011;13826;51.186;4.450;2022-07-04T13:33:14;8.48;;;2.60;;
26052;SDS011;13826;51.186;4.450;2022-07-04T13:35:40;6.88;;;2.92;;
26052;SDS011;13826;51.186;4.450;2022-07-04T13:38:06;7.10;;;2.17;;
26052;SDS011;13826;51.186;4.450;2022-07-04T13:40:32;12.52;;;3.05;;
26052;SDS011;13826;51.186;4.450;2022-07-04T13:42:57;4.18;;;2.05;;
26052;SDS011;13826;51.186;4.450;2022-07-04T13:45:23;5.10;;;2.13;;
26052;SDS011;13826;51.186;4.450;2022-07-04T13:47:50;7.90;;;2.15;;
26052;SDS011;13826;51.186;4.450;2022-07-04T13:50:16;7.80;;;2.45;;
26052;SDS011;13826;51.186;4.450;2022-07-04T13:52:43;8.10;;;3.30;;
26052;SDS011;13826;51.186;4.450;2022-07-04T13:55:09;6.95;;;2.67;;
26052;SDS011;13826;51.186;4.450;2022-07-04T13:57:35;11.88;;;2.90;;
26052;SDS011;13826;51.186;4.450;2022-07-04T14:00:02;8.35;;;2.70;;
26052;SDS011;13826;51.186;4.450;2022-07-04T14:02:32;7.43;;;2.60;;
26052;SDS011;13826;51.186;4.450;2022-07-04T14:04:58;6.82;;;2.60;;
26052;SDS011;13826;51.186;4.450;2022-07-04T14:07:24;6.20;;;2.63;;
26052;SDS011;13826;51.186;4.450;2022-07-04T14:09:50;12.15;;;2.75;;
26052;SDS011;13826;51.186;4.450;2022-07-04T14:12:16;5.70;;;2.22;;
26052;SDS011;13826;51.186;4.450;2022-07-04T14:14:42;11.75;;;3.30;;
26052;SDS011;13826;51.186;4.450;2022-07-04T14:17:08;8.70;;;2.80;;
26052;SDS011;13826;51.186;4.450;2022-07-04T14:19:34;8.30;;;3.00;;
26052;SDS011;13826;51.186;4.450;2022-07-04T14:22:00;7.03;;;3.45;;
26052;SDS011;13826;51.186;4.450;2022-07-04T14:24:25;8.10;;;2.20;;
26052;SDS011;13826;51.186;4.450;2022-07-04T14:26:52;5.88;;;2.53;;
26052;SDS011;13826;51.186;4.450;2022-07-04T14:29:18;9.55;;;3.38;;
26052;SDS011;13826;51.186;4.450;2022-07-04T14:31:44;5.82;;;2.40;;
26052;SDS011;13826;51.186;4.450;2022-07-04T14:34:10;8.38;;;2.53;;
26052;SDS011;13826;51.186;4.450;2022-07-04T14:36:39;7.95;;;3.08;;
26052;SDS011;13826;51.186;4.450;2022-07-04T14:39:06;10.98;;;2.20;;
26052;SDS011;13826;51.186;4.450;2022-07-04T14:41:32;5.20;;;2.13;;
26052;SDS011;13826;51.186;4.450;2022-07-04T14:43:58;6.20;;;2.40;;
26052;SDS011;13826;51.186;4.450;2022-07-04T14:46:24;8.20;;;2.83;;
26052;SDS011;13826;51.186;4.450;2022-07-04T14:48:49;8.57;;;2.40;;
26052;SDS011;13826;51.186;4.450;2022-07-04T14:51:15;6.78;;;2.90;;
26052;SDS011;13826;51.186;4.450;2022-07-04T14:53:41;3.92;;;2.38;;
26052;SDS011;13826;51.186;4.450;2022-07-04T14:56:07;6.35;;;2.20;;
26052;SDS011;13826;51.186;4.450;2022-07-04T14:58:33;7.47;;;2.03;;
26052;SDS011;13826;51.186;4.450;2022-07-04T15:00:59;8.13;;;2.22;;
26052;SDS011;13826;51.186;4.450;2022-07-04T15:03:24;13.18;;;2.40;;
26052;SDS011;13826;51.186;4.450;2022-07-04T15:05:50;6.57;;;2.20;;
26052;SDS011;13826;51.186;4.450;2022-07-04T15:08:16;3.78;;;1.77;;
26052;SDS011;13826;51.186;4.450;2022-07-04T15:10:41;5.15;;;2.20;;
26052;SDS011;13826;51.186;4.450;2022-07-04T15:13:07;4.18;;;2.05;;
26052;SDS011;13826;51.186;4.450;2022-07-04T15:15:33;7.22;;;2.40;;
26052;SDS011;13826;51.186;4.450;2022-07-04T15:17:59;9.77;;;2.83;;
26052;SDS011;13826;51.186;4.450;2022-07-04T15:20:26;5.07;;;2.05;;
26052;SDS011;13826;51.186;4.450;2022-07-04T15:23:10;11.82;;;3.80;;
26052;SDS011;13826;51.186;4.450;2022-07-04T15:25:54;8.68;;;3.53;;